createdAt,value
2018-08-09T00:02:26.056Z,19.29
2018-08-09T00:04:54.151Z,19.22
2018-08-09T00:07:22.204Z,19.19
2018-08-09T00:09:50.220Z,19.18
2018-08-09T00:12:18.243Z,19.07
2018-08-09T00:14:46.289Z,18.97
2018-08-09T00:17:14.348Z,18.94
2018-08-09T00:19:42.383Z,18.91
2018-08-09T00:22:10.407Z,18.83
2018-08-09T00:24:38.420Z,18.80
2018-08-09T00:27:06.608Z,18.75
2018-08-09T00:29:34.621Z,18.74
2018-08-09T00:32:02.638Z,18.73
2018-08-09T00:34:30.660Z,18.68
2018-08-09T00:36:58.696Z,18.64
2018-08-09T00:39:26.732Z,18.59
2018-08-09T00:41:54.763Z,18.54
2018-08-09T00:44:22.788Z,18.50
2018-08-09T00:46:50.823Z,18.48
2018-08-09T00:49:18.992Z,18.46
2018-08-09T00:51:47.012Z,18.36
2018-08-09T00:54:15.059Z,18.29
2018-08-09T00:56:43.073Z,18.26
2018-08-09T00:59:11.096Z,18.22
2018-08-09T01:01:39.141Z,18.21
2018-08-09T01:04:07.164Z,18.19
2018-08-09T01:06:35.193Z,18.16
2018-08-09T01:09:06.784Z,18.13
2018-08-09T01:11:41.384Z,18.11
2018-08-09T01:14:09.412Z,18.09
2018-08-09T01:16:37.463Z,18.05
2018-08-09T01:19:05.487Z,18.03
2018-08-09T01:21:33.702Z,18.01
2018-08-09T01:24:01.796Z,17.99
2018-08-09T01:26:29.855Z,17.97
2018-08-09T01:28:57.873Z,17.97
2018-08-09T01:31:33.221Z,17.97
2018-08-09T01:34:02.138Z,17.95
2018-08-09T01:36:30.191Z,17.92
2018-08-09T01:38:58.215Z,17.90
2018-08-09T01:41:26.659Z,17.88
2018-08-09T01:43:56.976Z,17.83
2018-08-09T01:46:25.419Z,17.80
2018-08-09T01:48:53.828Z,17.74
2018-08-09T01:51:21.844Z,17.67
2018-08-09T01:53:50.468Z,17.63
2018-08-09T01:56:18.497Z,17.57
2018-08-09T01:58:46.732Z,17.55
2018-08-09T02:01:14.916Z,17.55
2018-08-09T02:03:43.360Z,17.53
2018-08-09T02:06:11.395Z,17.50
2018-08-09T02:08:39.416Z,17.51
2018-08-09T02:11:08.192Z,17.49
2018-08-09T02:13:36.212Z,17.50
2018-08-09T02:16:04.996Z,17.50
2018-08-09T02:18:33.048Z,17.46
2018-08-09T02:21:01.090Z,17.45
2018-08-09T02:23:29.121Z,17.40
2018-08-09T02:25:57.147Z,17.34
2018-08-09T02:28:25.173Z,17.29
2018-08-09T02:30:53.202Z,17.28
2018-08-09T02:33:21.219Z,17.25
2018-08-09T02:35:49.236Z,17.22
2018-08-09T02:38:17.261Z,17.21
2018-08-09T02:40:45.285Z,17.20
2018-08-09T02:43:13.302Z,17.19
2018-08-09T02:45:41.332Z,17.14
2018-08-09T02:48:09.362Z,17.06
2018-08-09T02:50:37.389Z,17.01
2018-08-09T02:53:05.417Z,17.00
2018-08-09T02:55:33.475Z,16.98
2018-08-09T02:58:01.513Z,16.98
2018-08-09T03:00:29.552Z,16.99
2018-08-09T03:02:57.594Z,17.00
2018-08-09T03:05:25.625Z,17.03
2018-08-09T03:07:53.645Z,17.03
2018-08-09T03:10:21.659Z,17.05
2018-08-09T03:12:49.681Z,17.06
2018-08-09T03:15:17.717Z,17.06
2018-08-09T03:17:45.764Z,17.03
2018-08-09T03:20:13.802Z,16.96
2018-08-09T03:22:41.947Z,16.92
2018-08-09T03:25:09.984Z,16.84
2018-08-09T03:27:38.021Z,16.81
2018-08-09T03:30:06.489Z,16.80
2018-08-09T03:32:34.524Z,16.76
2018-08-09T03:35:02.640Z,16.71
2018-08-09T03:37:30.680Z,16.66
2018-08-09T03:39:58.712Z,16.60
2018-08-09T03:42:26.747Z,16.78
2018-08-09T03:44:54.931Z,16.77
2018-08-09T03:47:22.984Z,16.71
2018-08-09T03:49:51.032Z,16.63
2018-08-09T03:52:19.064Z,16.58
2018-08-09T03:54:47.101Z,16.51
2018-08-09T03:57:15.161Z,16.49
2018-08-09T03:59:43.265Z,16.48
2018-08-09T04:02:11.258Z,16.42
2018-08-09T04:04:39.290Z,16.36
2018-08-09T04:07:07.312Z,16.36
2018-08-09T04:09:35.349Z,16.38
2018-08-09T04:12:03.535Z,16.38
2018-08-09T04:14:31.436Z,16.38
2018-08-09T04:16:59.488Z,16.42
2018-08-09T04:19:27.524Z,16.44
2018-08-09T04:21:55.564Z,16.45
2018-08-09T04:24:23.761Z,16.45
2018-08-09T04:26:51.820Z,16.41
2018-08-09T04:29:19.853Z,16.39
2018-08-09T04:31:47.892Z,16.36
2018-08-09T04:34:15.932Z,16.32
2018-08-09T04:36:43.968Z,16.30
2018-08-09T04:39:11.992Z,16.29
2018-08-09T04:41:40.015Z,16.29
2018-08-09T04:44:08.064Z,16.28
2018-08-09T04:46:36.090Z,16.28
2018-08-09T04:49:04.908Z,16.29
2018-08-09T04:51:32.952Z,16.32
2018-08-09T04:54:01.008Z,16.31
2018-08-09T04:56:29.029Z,16.29
2018-08-09T04:58:57.069Z,16.28
2018-08-09T05:01:25.108Z,16.27
2018-08-09T05:03:53.128Z,16.27
2018-08-09T05:06:21.197Z,16.28
2018-08-09T05:08:49.236Z,16.32
2018-08-09T05:11:17.288Z,16.38
2018-08-09T05:13:45.325Z,16.46
2018-08-09T05:16:13.368Z,16.54
2018-08-09T05:18:41.416Z,16.60
2018-08-09T05:21:10.203Z,16.68
2018-08-09T05:23:38.240Z,16.77
2018-08-09T05:26:06.424Z,16.85
2018-08-09T05:28:34.444Z,16.94
2018-08-09T05:31:02.468Z,17.01
2018-08-09T05:33:30.653Z,17.09
2018-08-09T05:35:58.672Z,17.15
2018-08-09T05:38:26.703Z,17.26
2018-08-09T05:43:29.940Z,17.64
2018-08-09T05:45:57.964Z,17.72
2018-08-09T05:48:26.002Z,17.78
2018-08-09T05:50:54.239Z,17.86
2018-08-09T05:53:22.267Z,17.93
2018-08-09T05:55:50.284Z,17.99
2018-08-09T05:58:18.332Z,18.07
2018-08-09T06:00:46.356Z,18.13
2018-08-09T06:03:14.416Z,18.19
2018-08-09T06:05:42.519Z,18.27
2018-08-09T06:08:10.468Z,18.34
2018-08-09T06:10:38.503Z,18.44
2018-08-09T06:13:06.562Z,18.55
2018-08-09T06:15:34.594Z,18.67
2018-08-09T06:18:02.629Z,18.79
2018-08-09T06:20:30.700Z,18.94
2018-08-09T06:22:58.884Z,19.11
2018-08-09T06:25:26.912Z,19.30
2018-08-09T06:27:55.065Z,19.50
2018-08-09T06:30:23.084Z,19.71
2018-08-09T06:32:51.104Z,19.91
2018-08-09T06:35:19.121Z,20.12
2018-08-09T06:37:47.148Z,20.37
2018-08-09T06:40:15.169Z,20.61
2018-08-09T06:42:44.263Z,20.84
2018-08-09T06:45:12.495Z,21.07
2018-08-09T06:47:40.589Z,21.25
2018-08-09T06:50:09.848Z,21.42
2018-08-09T06:52:37.992Z,21.57
2018-08-09T06:55:06.079Z,21.77
2018-08-09T06:57:34.292Z,21.97
2018-08-09T07:00:02.424Z,22.15
2018-08-09T07:02:30.452Z,22.36
2018-08-09T07:04:58.472Z,22.59
2018-08-09T07:07:26.500Z,22.86
2018-08-09T07:09:54.532Z,23.13
2018-08-09T07:12:22.540Z,23.24
2018-08-09T07:14:50.544Z,23.25
2018-08-09T07:17:18.556Z,23.23
2018-08-09T07:19:46.573Z,23.26
2018-08-09T07:22:14.610Z,23.31
2018-08-09T07:24:42.628Z,23.41
2018-08-09T07:27:10.652Z,23.61
2018-08-09T07:29:38.660Z,23.92
2018-08-09T07:32:06.954Z,24.21
2018-08-09T07:34:34.968Z,24.50
2018-08-09T07:37:02.992Z,24.74
2018-08-09T07:39:31.068Z,25.06
2018-08-09T07:41:59.040Z,25.32
2018-08-09T07:44:27.064Z,25.53
2018-08-09T07:46:55.085Z,25.72
2018-08-09T07:49:23.102Z,25.89
2018-08-09T07:51:51.120Z,26.02
2018-08-09T07:54:19.163Z,26.15
2018-08-09T07:56:47.345Z,26.25
2018-08-09T07:59:15.356Z,26.20
2018-08-09T08:01:43.374Z,26.14
2018-08-09T08:04:11.390Z,26.07
2018-08-09T08:06:39.392Z,26.01
2018-08-09T08:09:09.120Z,25.81
2018-08-09T08:11:37.172Z,25.75
2018-08-09T08:14:05.349Z,25.73
2018-08-09T08:16:33.444Z,25.78
2018-08-09T08:19:01.702Z,25.75
2018-08-09T08:21:29.725Z,25.72
2018-08-09T08:23:57.753Z,25.79
2018-08-09T08:26:25.840Z,25.96
2018-08-09T08:28:53.868Z,26.19
2018-08-09T08:31:21.968Z,26.38
2018-08-09T08:33:49.996Z,26.47
2018-08-09T08:36:18.162Z,26.57
2018-08-09T08:38:46.310Z,26.53
2018-08-09T08:41:14.540Z,26.47
2018-08-09T08:43:42.657Z,26.42
2018-08-09T08:46:10.721Z,26.53
2018-08-09T08:48:38.732Z,26.74
2018-08-09T08:51:06.747Z,27.00
2018-08-09T08:53:34.761Z,27.04
2018-08-09T08:56:02.768Z,27.13
2018-08-09T08:58:30.808Z,27.20
2018-08-09T09:00:59.380Z,27.23
2018-08-09T09:03:27.373Z,27.16
2018-08-09T09:05:55.393Z,27.28
2018-08-09T09:08:23.407Z,27.42
2018-08-09T09:10:54.776Z,27.49
2018-08-09T09:13:23.400Z,27.66
2018-08-09T09:15:51.428Z,27.86
2018-08-09T09:18:19.451Z,28.01
2018-08-09T09:20:47.497Z,28.23
2018-08-09T09:23:15.532Z,28.52
2018-08-09T09:25:43.853Z,28.70
2018-08-09T09:28:11.904Z,28.96
2018-08-09T09:30:39.925Z,29.16
2018-08-09T09:33:07.960Z,29.39
2018-08-09T09:35:36.032Z,29.55
2018-08-09T09:38:05.180Z,29.84
2018-08-09T09:40:33.250Z,30.05
2018-08-09T09:43:01.269Z,30.22
2018-08-09T09:45:29.337Z,30.44
2018-08-09T09:47:57.419Z,30.70
2018-08-09T09:50:25.444Z,30.90
2018-08-09T09:52:53.472Z,31.01
2018-08-09T09:55:21.488Z,31.13
2018-08-09T09:57:49.560Z,30.94
2018-08-09T10:00:22.881Z,31.00
2018-08-09T10:02:50.888Z,31.06
2018-08-09T10:05:19.116Z,31.15
2018-08-09T10:07:47.149Z,31.24
2018-08-09T10:10:15.164Z,31.39
2018-08-09T10:12:43.439Z,31.51
2018-08-09T10:15:11.790Z,31.63
2018-08-09T10:17:40.152Z,31.52
2018-08-09T10:20:08.853Z,31.35
2018-08-09T10:22:37.000Z,31.27
2018-08-09T10:25:05.541Z,31.19
2018-08-09T10:27:33.580Z,31.11
2018-08-09T10:30:01.676Z,30.94
2018-08-09T10:32:29.773Z,30.75
2018-08-09T10:34:57.793Z,30.57
2018-08-09T10:37:25.897Z,30.43
2018-08-09T10:39:53.975Z,30.21
2018-08-09T10:42:21.997Z,29.97
2018-08-09T10:44:50.130Z,29.66
2018-08-09T10:47:18.491Z,29.28
2018-08-09T10:49:46.530Z,28.94
2018-08-09T10:52:14.559Z,28.53
2018-08-09T10:54:42.693Z,28.09
2018-08-09T10:57:10.765Z,27.78
2018-08-09T10:59:38.785Z,27.55
2018-08-09T11:02:07.022Z,27.34
2018-08-09T11:04:35.060Z,26.99
2018-08-09T11:07:03.376Z,26.67
2018-08-09T11:09:31.395Z,26.36
2018-08-09T11:11:59.416Z,26.11
2018-08-09T11:14:27.454Z,25.80
2018-08-09T11:16:55.517Z,25.54
2018-08-09T11:19:23.736Z,25.41
2018-08-09T11:21:51.809Z,25.39
2018-08-09T11:24:20.841Z,25.44
2018-08-09T11:26:49.039Z,25.46
2018-08-09T11:29:17.056Z,25.44
2018-08-09T11:31:45.084Z,25.51
2018-08-09T11:34:13.392Z,25.69
2018-08-09T11:36:41.416Z,25.88
2018-08-09T11:39:11.243Z,26.01
2018-08-09T11:41:39.252Z,26.13
2018-08-09T11:44:07.618Z,26.22
2018-08-09T11:46:35.645Z,26.30
2018-08-09T11:49:03.966Z,26.52
2018-08-09T11:51:32.129Z,26.68
2018-08-09T11:54:00.393Z,26.80
2018-08-09T11:56:28.450Z,27.01
2018-08-09T11:58:56.548Z,27.19
2018-08-09T12:01:24.623Z,27.28
2018-08-09T12:03:53.151Z,27.34
2018-08-09T12:06:21.188Z,27.54
2018-08-09T12:08:49.208Z,27.69
2018-08-09T12:11:17.383Z,27.69
2018-08-09T12:13:45.457Z,27.71
2018-08-09T12:16:13.662Z,27.77
2018-08-09T12:18:41.721Z,27.84
2018-08-09T12:21:09.741Z,27.88
2018-08-09T12:23:37.774Z,27.90
2018-08-09T12:26:05.949Z,27.84
2018-08-09T12:28:34.119Z,27.78
2018-08-09T12:31:02.129Z,27.80
2018-08-09T12:33:30.484Z,27.87
2018-08-09T12:35:58.512Z,27.86
2018-08-09T12:38:26.544Z,27.89
2018-08-09T12:40:54.564Z,27.75
2018-08-09T12:43:22.588Z,27.70
2018-08-09T12:45:50.639Z,27.65
2018-08-09T12:48:18.894Z,27.65
2018-08-09T12:50:47.080Z,27.62
2018-08-09T12:53:15.040Z,27.68
2018-08-09T12:55:43.104Z,27.73
2018-08-09T12:58:11.117Z,27.73
2018-08-09T13:00:39.160Z,27.79
2018-08-09T13:03:07.172Z,27.85
2018-08-09T13:05:35.255Z,27.90
2018-08-09T13:08:03.282Z,27.85
2018-08-09T13:10:31.296Z,27.85
2018-08-09T13:12:59.336Z,27.84
2018-08-09T13:15:27.365Z,27.92
2018-08-09T13:17:55.445Z,27.97
2018-08-09T13:20:23.496Z,27.94
2018-08-09T13:22:52.092Z,27.93
2018-08-09T13:25:20.296Z,27.87
2018-08-09T13:27:48.797Z,27.90
2018-08-09T13:30:16.858Z,27.89
2018-08-09T13:32:45.265Z,27.90
2018-08-09T13:35:13.340Z,27.79
2018-08-09T13:37:41.522Z,27.81
2018-08-09T13:40:10.604Z,27.75
2018-08-09T13:42:39.301Z,27.78
2018-08-09T13:45:09.761Z,27.74
2018-08-09T13:47:37.828Z,27.75
2018-08-09T13:50:06.508Z,27.80
2018-08-09T13:52:35.076Z,27.80
2018-08-09T13:55:03.117Z,27.75
2018-08-09T13:57:31.140Z,27.70
2018-08-09T13:59:59.173Z,27.63
2018-08-09T14:02:27.480Z,27.52
2018-08-09T14:04:55.512Z,27.41
2018-08-09T14:07:23.620Z,27.31
2018-08-09T14:09:51.676Z,27.24
2018-08-09T14:12:19.755Z,27.13
2018-08-09T14:14:47.835Z,27.08
2018-08-09T14:17:15.866Z,27.06
2018-08-09T14:19:43.896Z,26.93
2018-08-09T14:22:11.917Z,26.78
2018-08-09T14:24:40.073Z,26.65
2018-08-09T14:27:08.001Z,26.45
2018-08-09T14:29:36.281Z,26.29
2018-08-09T14:32:05.173Z,26.03
2018-08-09T14:34:33.212Z,25.89
2018-08-09T14:37:01.264Z,25.83
2018-08-09T14:39:29.716Z,25.82
2018-08-09T14:41:58.084Z,25.86
2018-08-09T14:44:26.218Z,25.92
2018-08-09T14:46:54.269Z,26.02
2018-08-09T14:49:22.316Z,26.07
2018-08-09T14:51:50.440Z,26.08
2018-08-09T14:54:18.464Z,26.12
2018-08-09T14:56:46.589Z,26.13
2018-08-09T14:59:14.605Z,26.06
2018-08-09T15:01:42.729Z,26.06
2018-08-09T15:04:10.813Z,26.07
2018-08-09T15:06:39.400Z,26.13
2018-08-09T15:09:09.057Z,26.07
2018-08-09T15:11:37.229Z,26.03
2018-08-09T15:14:06.257Z,26.04
2018-08-09T15:16:34.301Z,26.12
2018-08-09T15:19:02.889Z,26.16
2018-08-09T15:21:31.149Z,26.11
2018-08-09T15:23:59.175Z,26.03
2018-08-09T15:26:27.428Z,25.99
2018-08-09T15:28:55.464Z,25.96
2018-08-09T15:31:23.572Z,26.03
2018-08-09T15:33:51.629Z,26.13
2018-08-09T15:36:19.636Z,26.24
2018-08-09T15:38:47.653Z,26.26
2018-08-09T15:41:15.751Z,26.30
2018-08-09T15:43:43.922Z,26.36
2018-08-09T15:46:11.944Z,26.39
2018-08-09T15:48:39.963Z,26.44
2018-08-09T15:51:07.992Z,26.55
2018-08-09T15:53:36.214Z,26.63
2018-08-09T15:56:04.624Z,26.75
2018-08-09T15:58:32.677Z,26.79
2018-08-09T16:01:00.730Z,26.80
2018-08-09T16:03:28.862Z,26.81
2018-08-09T16:05:56.877Z,26.72
2018-08-09T16:08:24.897Z,26.77
2018-08-09T16:10:52.965Z,26.75
2018-08-09T16:13:21.060Z,26.74
2018-08-09T16:15:49.072Z,26.69
2018-08-09T16:18:17.109Z,26.62
2018-08-09T16:20:45.202Z,26.57
2018-08-09T16:23:13.357Z,26.52
2018-08-09T16:25:41.404Z,26.40
2018-08-09T16:28:09.509Z,26.32
2018-08-09T16:30:37.593Z,26.26
2018-08-09T16:33:05.908Z,26.18
2018-08-09T16:35:34.125Z,26.04
2018-08-09T16:38:02.416Z,25.94
2018-08-09T16:40:30.472Z,25.81
2018-08-09T16:42:58.565Z,25.78
2018-08-09T16:45:26.628Z,25.77
2018-08-09T16:47:54.891Z,25.73
2018-08-09T16:50:24.592Z,25.61
2018-08-09T16:52:52.716Z,25.58
2018-08-09T16:55:22.036Z,25.59
2018-08-09T16:57:50.365Z,25.62
2018-08-09T17:00:19.978Z,25.61
2018-08-09T17:02:48.641Z,25.55
2018-08-09T17:05:20.961Z,25.48
2018-08-09T17:07:49.022Z,25.47
2018-08-09T17:10:18.363Z,25.44
2018-08-09T17:12:46.676Z,25.39
2018-08-09T17:15:19.563Z,25.38
2018-08-09T17:17:47.583Z,25.37
2018-08-09T17:20:19.805Z,25.38
2018-08-09T17:22:47.836Z,25.35
2018-08-09T17:25:15.970Z,25.40
2018-08-09T17:27:45.021Z,25.37
2018-08-09T17:30:14.393Z,25.43
2018-08-09T17:32:42.620Z,25.46
2018-08-09T17:35:11.760Z,25.47
2018-08-09T17:37:40.017Z,25.49
2018-08-09T17:40:11.089Z,25.46
2018-08-09T17:42:39.143Z,25.46
2018-08-09T17:45:08.961Z,25.46
2018-08-09T17:47:36.993Z,25.47
2018-08-09T17:50:05.877Z,25.45
2018-08-09T17:52:34.145Z,25.47
2018-08-09T17:55:02.589Z,25.44
2018-08-09T17:57:30.692Z,25.43
2018-08-09T17:59:58.709Z,25.44
2018-08-09T18:02:26.832Z,25.39
2018-08-09T18:04:54.935Z,25.41
2018-08-09T18:07:22.981Z,25.43
2018-08-09T18:09:51.001Z,25.47
2018-08-09T18:12:19.025Z,25.46
2018-08-09T18:14:47.193Z,25.49
2018-08-09T18:17:15.208Z,25.47
2018-08-09T18:19:43.256Z,25.42
2018-08-09T18:22:12.218Z,25.44
2018-08-09T18:24:40.263Z,25.44
2018-08-09T18:27:08.536Z,25.46
2018-08-09T18:29:36.584Z,25.49
2018-08-09T18:32:04.792Z,25.51
2018-08-09T18:34:33.090Z,25.46
2018-08-09T18:37:01.257Z,25.44
2018-08-09T18:39:29.349Z,25.24
2018-08-09T18:41:57.392Z,25.12
2018-08-09T18:44:25.568Z,24.97
2018-08-09T18:46:53.583Z,24.85
2018-08-09T18:49:21.592Z,24.78
2018-08-09T18:51:49.779Z,24.68
2018-08-09T18:54:17.800Z,24.56
2018-08-09T18:56:45.823Z,24.35
2018-08-09T18:59:13.889Z,24.22
2018-08-09T19:01:42.533Z,24.14
2018-08-09T19:04:10.540Z,23.92
2018-08-09T19:06:38.575Z,23.83
2018-08-09T19:09:08.151Z,23.64
2018-08-09T19:11:36.165Z,23.54
2018-08-09T19:14:04.872Z,23.37
2018-08-09T19:16:32.937Z,23.33
2018-08-09T19:19:01.369Z,23.25
2018-08-09T19:21:29.429Z,23.13
2018-08-09T19:23:57.464Z,23.07
2018-08-09T19:26:25.504Z,22.98
2018-08-09T19:28:53.532Z,22.95
2018-08-09T19:31:21.544Z,22.90
2018-08-09T19:33:49.577Z,22.80
2018-08-09T19:36:17.638Z,22.72
2018-08-09T19:38:46.098Z,22.71
2018-08-09T19:41:14.054Z,22.60
2018-08-09T19:43:42.128Z,22.53
2018-08-09T19:46:10.164Z,22.43
2018-08-09T19:48:38.212Z,22.33
2018-08-09T19:51:06.322Z,22.23
2018-08-09T19:53:34.356Z,22.18
2018-08-09T19:56:02.389Z,22.15
2018-08-09T19:58:30.410Z,22.08
2018-08-09T20:00:58.436Z,22.07
2018-08-09T20:03:26.451Z,22.06
2018-08-09T20:05:54.493Z,21.96
2018-08-09T20:08:22.528Z,21.96
2018-08-09T20:10:50.576Z,21.88
2018-08-09T20:13:18.610Z,21.86
2018-08-09T20:15:46.788Z,21.81
2018-08-09T20:18:14.805Z,21.75
2018-08-09T20:20:42.829Z,21.71
2018-08-09T20:23:10.869Z,21.70
2018-08-09T20:25:38.894Z,21.73
2018-08-09T20:28:06.938Z,21.69
2018-08-09T20:30:34.949Z,21.69
2018-08-09T20:33:02.962Z,21.65
2018-08-09T20:35:30.983Z,21.65
2018-08-09T20:37:58.996Z,21.67
2018-08-09T20:40:27.001Z,21.61
2018-08-09T20:42:55.212Z,21.60
2018-08-09T20:45:24.204Z,21.59
2018-08-09T20:47:52.520Z,21.59
2018-08-09T20:50:24.560Z,21.58
2018-08-09T20:52:52.727Z,21.59
2018-08-09T20:55:21.050Z,21.57
2018-08-09T20:57:49.998Z,21.57
2018-08-09T21:00:26.716Z,21.54
2018-08-09T21:02:56.009Z,21.56
2018-08-09T21:05:28.452Z,21.57
2018-08-09T21:07:56.796Z,21.61
2018-08-09T21:10:25.395Z,21.60
2018-08-09T21:12:53.420Z,21.58
2018-08-09T21:15:21.785Z,21.54
2018-08-09T21:17:49.976Z,21.49
2018-08-09T21:20:18.050Z,21.50
2018-08-09T21:22:47.300Z,21.42
2018-08-09T21:25:15.364Z,21.39
2018-08-09T21:27:43.948Z,21.31
2018-08-09T21:30:14.377Z,21.27
2018-08-09T21:32:42.432Z,21.18
2018-08-09T21:35:10.922Z,21.16
2018-08-09T21:37:39.615Z,21.09
2018-08-09T21:40:08.962Z,21.00
2018-08-09T21:42:36.996Z,20.90
2018-08-09T21:45:07.252Z,20.83
2018-08-09T21:47:35.572Z,20.75
2018-08-09T21:50:03.743Z,20.69
2018-08-09T21:52:31.780Z,20.58
2018-08-09T21:55:00.544Z,20.52
2018-08-09T21:57:28.564Z,20.47
2018-08-09T21:59:56.596Z,20.48
2018-08-09T22:02:24.616Z,20.43
2018-08-09T22:04:58.004Z,20.42
2018-08-09T22:07:31.289Z,20.37
2018-08-09T22:10:04.560Z,20.29
2018-08-09T22:12:38.149Z,20.22
2018-08-09T22:15:11.668Z,20.11
2018-08-09T22:17:45.153Z,20.04
2018-08-09T22:20:18.575Z,19.97
2018-08-09T22:22:46.598Z,19.89
2018-08-09T22:25:14.865Z,19.87
2018-08-09T22:27:43.478Z,19.81
2018-08-09T22:30:14.464Z,19.76
2018-08-09T22:32:43.980Z,19.74
2018-08-09T22:35:12.037Z,19.75
2018-08-09T22:37:40.168Z,19.73
2018-08-09T22:40:08.210Z,19.69
2018-08-09T22:42:36.576Z,19.65
2018-08-09T22:45:04.921Z,19.63
2018-08-09T22:47:32.943Z,19.51
2018-08-09T22:50:00.961Z,19.44
2018-08-09T22:52:29.160Z,19.44
2018-08-09T22:54:57.256Z,19.36
2018-08-09T22:57:25.312Z,19.36
2018-08-09T22:59:53.336Z,19.39
2018-08-09T23:02:21.361Z,19.21
2018-08-09T23:04:49.424Z,19.08
2018-08-09T23:07:17.407Z,19.01
2018-08-09T23:09:45.673Z,18.84
2018-08-09T23:12:13.692Z,18.70
2018-08-09T23:14:41.704Z,18.59
2018-08-09T23:17:09.733Z,18.50
2018-08-09T23:19:38.177Z,18.42
2018-08-09T23:22:06.238Z,18.37
2018-08-09T23:24:34.236Z,18.34
2018-08-09T23:27:02.472Z,18.32
2018-08-09T23:29:30.553Z,18.34
2018-08-09T23:31:58.563Z,18.31
2018-08-09T23:34:26.592Z,18.29
2018-08-09T23:36:54.612Z,18.30
2018-08-09T23:39:22.638Z,18.28
2018-08-09T23:41:50.899Z,18.30
2018-08-09T23:44:18.916Z,18.34
2018-08-09T23:46:47.093Z,18.33
2018-08-09T23:49:15.154Z,18.33
2018-08-09T23:51:43.492Z,18.31
2018-08-09T23:54:11.523Z,18.30
2018-08-09T23:56:39.536Z,18.25
2018-08-09T23:59:07.596Z,18.21
